createdAt,value
2018-11-22T12:17:38.674Z,2.13
2018-11-22T12:20:08.997Z,2.27
2018-11-22T12:22:38.580Z,2.40
2018-11-22T12:25:09.240Z,2.40
2018-11-22T12:27:38.249Z,2.40
2018-11-22T12:30:14.169Z,2.50
2018-11-22T12:32:48.090Z,2.70
2018-11-22T12:35:25.236Z,2.20
2018-11-22T12:37:59.270Z,1.80
2018-11-22T12:40:28.313Z,1.80
2018-11-22T12:42:57.302Z,2.43
2018-11-22T12:45:26.551Z,2.20
2018-11-22T12:47:55.616Z,2.10
2018-11-22T12:50:24.631Z,2.20
2018-11-22T12:52:53.683Z,1.67
2018-11-22T12:55:22.755Z,1.40
2018-11-22T12:57:51.724Z,1.50
2018-11-22T13:00:20.850Z,1.70
2018-11-22T13:02:49.927Z,1.87
2018-11-22T13:05:19.893Z,1.73
2018-11-22T13:07:48.893Z,2.13
2018-11-22T13:10:19.017Z,1.80
2018-11-22T13:12:48.991Z,2.07
2018-11-22T13:15:19.418Z,2.17
2018-11-22T13:17:48.860Z,1.90
2018-11-22T13:20:19.437Z,1.77
2018-11-22T13:22:48.546Z,1.80
2018-11-22T13:25:19.139Z,1.90
2018-11-22T13:27:48.141Z,1.80
2018-11-22T13:30:21.040Z,1.70
2018-11-22T13:32:50.678Z,1.50
2018-11-22T13:35:20.265Z,1.90
2018-11-22T13:37:50.497Z,1.70
2018-11-22T13:40:19.696Z,1.60
2018-11-22T13:42:49.824Z,1.60
2018-11-22T13:45:22.454Z,1.70
2018-11-22T13:47:52.763Z,1.43
2018-11-22T13:50:24.843Z,1.53
2018-11-22T13:52:55.476Z,1.97
2018-11-22T13:55:24.587Z,2.13
2018-11-22T13:57:53.802Z,1.70
2018-11-22T14:00:26.186Z,1.83
2018-11-22T14:02:59.897Z,1.90
2018-11-22T14:05:28.943Z,1.80
2018-11-22T14:07:57.965Z,1.93
2018-11-22T14:10:27.057Z,2.00
2018-11-22T14:12:57.202Z,2.80
2018-11-22T14:15:27.652Z,2.70
2018-11-22T14:17:58.362Z,2.50
2018-11-22T14:20:30.002Z,2.70
2018-11-22T14:22:59.805Z,2.70
2018-11-22T14:25:29.368Z,2.63
2018-11-22T14:27:59.040Z,2.50
2018-11-22T14:30:30.706Z,2.37
2018-11-22T14:33:00.245Z,2.33
2018-11-22T14:35:30.511Z,2.20
2018-11-22T14:38:00.790Z,2.30
2018-11-22T14:40:31.178Z,2.10
2018-11-22T14:43:00.681Z,2.30
2018-11-22T14:45:31.086Z,2.30
2018-11-22T14:48:02.414Z,2.50
2018-11-22T14:50:40.520Z,2.50
2018-11-22T14:53:11.576Z,2.93
2018-11-22T14:55:40.658Z,3.00
2018-11-22T14:58:10.796Z,3.20
2018-11-22T15:00:39.983Z,3.30
2018-11-22T15:03:09.447Z,3.17
2018-11-22T15:05:39.044Z,3.30
2018-11-22T15:08:09.043Z,3.17
2018-11-22T15:10:38.355Z,3.27
2018-11-22T15:13:08.105Z,3.10
2018-11-22T15:15:38.154Z,3.23
2018-11-22T15:18:07.490Z,3.40
2018-11-22T15:20:37.278Z,3.87
2018-11-22T15:23:06.778Z,3.83
2018-11-22T15:25:35.997Z,4.30
2018-11-22T15:28:05.578Z,3.80
2018-11-22T15:30:36.008Z,4.30
2018-11-22T15:33:05.652Z,3.97
2018-11-22T15:35:35.395Z,3.17
2018-11-22T15:38:05.215Z,2.80
2018-11-22T15:40:34.245Z,3.10
2018-11-22T15:43:04.425Z,3.40
2018-11-22T15:45:35.361Z,3.87
2018-11-22T15:48:08.847Z,4.00
2018-11-22T15:50:38.224Z,4.13
2018-11-22T15:53:07.483Z,4.70
2018-11-22T15:55:36.683Z,4.47
2018-11-22T15:58:06.106Z,4.30
2018-11-22T16:00:35.815Z,4.03
2018-11-22T16:03:05.356Z,3.20
2018-11-22T16:05:34.693Z,3.50
2018-11-22T16:08:03.699Z,3.40
2018-11-22T16:10:34.786Z,3.20
2018-11-22T16:13:06.273Z,3.90
2018-11-22T16:15:43.442Z,3.80
2018-11-22T16:18:12.481Z,4.03
2018-11-22T16:20:41.697Z,3.93
2018-11-22T16:23:10.899Z,3.70
2018-11-22T16:25:40.151Z,3.80
2018-11-22T16:28:09.253Z,3.80
2018-11-22T16:30:38.938Z,3.67
2018-11-22T16:33:08.403Z,3.70
2018-11-22T16:35:37.858Z,4.27
2018-11-22T16:38:08.490Z,4.00
2018-11-22T16:40:37.624Z,4.80
2018-11-22T16:43:07.017Z,6.73
2018-11-22T16:45:37.963Z,7.23
2018-11-22T16:48:09.547Z,7.70
2018-11-22T16:50:39.985Z,7.00
2018-11-22T16:53:09.124Z,6.83
2018-11-22T16:55:38.326Z,6.57
2018-11-22T16:58:08.441Z,5.90
2018-11-22T17:00:39.012Z,4.80
2018-11-22T17:03:10.940Z,5.00
2018-11-22T17:05:41.054Z,4.47
2018-11-22T17:08:10.977Z,4.70
2018-11-22T17:10:40.741Z,4.37
2018-11-22T17:13:10.068Z,5.03
2018-11-22T17:15:40.589Z,4.73
2018-11-22T17:18:10.735Z,5.40
2018-11-22T17:20:39.961Z,5.37
2018-11-22T17:23:09.579Z,5.47
2018-11-22T17:25:39.358Z,5.93
2018-11-22T17:28:09.601Z,6.17
2018-11-22T17:30:40.328Z,5.23
2018-11-22T17:33:09.381Z,5.97
2018-11-22T17:35:39.715Z,5.97
2018-11-22T17:38:10.069Z,6.53
2018-11-22T17:40:46.240Z,6.60
2018-11-22T17:43:16.824Z,6.83
2018-11-22T17:45:47.491Z,7.63
2018-11-22T17:48:17.000Z,7.67
2018-11-22T17:50:47.727Z,7.60
2018-11-22T17:53:16.808Z,6.93
2018-11-22T17:55:46.375Z,7.10
2018-11-22T17:58:15.891Z,7.83
2018-11-22T18:00:49.408Z,7.40
2018-11-22T18:03:19.163Z,7.67
2018-11-22T18:05:48.705Z,8.13
2018-11-22T18:08:17.948Z,7.60
2018-11-22T18:10:47.274Z,8.30
2018-11-22T18:13:17.027Z,7.73
2018-11-22T18:15:51.474Z,9.03
2018-11-22T18:18:21.027Z,8.97
2018-11-22T18:20:50.143Z,8.53
2018-11-22T18:23:19.564Z,8.63
2018-11-22T18:25:49.216Z,8.40
2018-11-22T18:28:18.394Z,7.53
2018-11-22T18:30:48.309Z,6.90
2018-11-22T18:33:17.909Z,6.50
2018-11-22T18:35:47.228Z,6.50
2018-11-22T18:38:17.104Z,6.07
2018-11-22T18:40:46.772Z,6.20
2018-11-22T18:43:16.623Z,5.77
2018-11-22T18:45:47.233Z,6.40
2018-11-22T18:48:18.551Z,6.00
2018-11-22T18:50:48.706Z,6.40
2018-11-22T18:53:18.253Z,6.57
2018-11-22T18:55:47.975Z,6.63
2018-11-22T18:58:18.158Z,6.73
2018-11-22T19:00:48.118Z,6.00
2018-11-22T19:03:19.715Z,6.83
2018-11-22T19:05:49.071Z,5.97
2018-11-22T19:08:18.608Z,6.27
2018-11-22T19:10:48.741Z,6.50
2018-11-22T19:13:18.587Z,6.40
2018-11-22T19:15:48.730Z,6.23
2018-11-22T19:18:18.703Z,6.50
2018-11-22T19:20:48.204Z,7.13
2018-11-22T19:23:18.128Z,7.33
2018-11-22T19:25:47.508Z,6.67
2018-11-22T19:28:17.100Z,6.37
2018-11-22T19:30:47.237Z,5.83
2018-11-22T19:33:18.644Z,6.50
2018-11-22T19:35:49.659Z,6.97
2018-11-22T19:38:18.843Z,7.23
2018-11-22T19:40:49.425Z,7.23
2018-11-22T19:43:18.551Z,7.83
2018-11-22T19:45:48.845Z,7.93
2018-11-22T19:48:18.229Z,8.53
2018-11-22T19:50:47.734Z,8.27
2018-11-22T19:53:17.616Z,8.20
2018-11-22T19:55:46.843Z,9.53
2018-11-22T19:58:16.989Z,9.50
2018-11-22T20:00:46.100Z,8.60
2018-11-22T20:03:15.730Z,9.07
2018-11-22T20:05:45.703Z,9.37
2018-11-22T20:08:17.730Z,9.43
2018-11-22T20:10:48.082Z,9.53
2018-11-22T20:13:18.104Z,9.73
2018-11-22T20:15:47.930Z,10.00
2018-11-22T20:18:17.568Z,10.53
2018-11-22T20:20:49.984Z,9.20
2018-11-22T20:23:21.539Z,8.90
2018-11-22T20:25:47.123Z,7.87
2018-11-22T20:28:16.185Z,8.47
2018-11-22T20:30:48.250Z,8.23
2018-11-22T20:33:17.909Z,8.60
2018-11-22T20:35:47.687Z,8.57
2018-11-22T20:38:16.979Z,8.13
2018-11-22T20:40:46.466Z,8.03
2018-11-22T20:43:15.918Z,7.97
2018-11-22T20:45:45.573Z,8.67
2018-11-22T20:48:15.149Z,9.37
2018-11-22T20:50:46.694Z,9.67
2018-11-22T20:53:16.140Z,11.07
2018-11-22T20:55:45.591Z,11.40
2018-11-22T20:58:15.070Z,10.63
2018-11-22T21:00:44.185Z,11.60
2018-11-22T21:03:13.427Z,12.20
2018-11-22T21:05:44.083Z,12.03
2018-11-22T21:08:13.437Z,11.60
2018-11-22T21:10:42.629Z,11.33
2018-11-22T21:13:11.909Z,11.07
2018-11-22T21:15:41.160Z,12.37
2018-11-22T21:18:10.550Z,13.50
2018-11-22T21:20:41.656Z,11.90
2018-11-22T21:23:10.883Z,12.57
2018-11-22T21:25:40.416Z,13.07
2018-11-22T21:28:09.502Z,11.60
2018-11-22T21:30:39.652Z,12.70
2018-11-22T21:33:09.001Z,12.47
2018-11-22T21:35:38.460Z,13.57
2018-11-22T21:38:08.431Z,13.33
2018-11-22T21:40:37.611Z,12.70
2018-11-22T21:43:07.125Z,11.57
2018-11-22T21:45:36.436Z,11.60
2018-11-22T21:48:06.053Z,10.90
2018-11-22T21:50:35.418Z,10.27
2018-11-22T21:53:04.996Z,9.63
2018-11-22T21:55:34.100Z,10.13
2018-11-22T21:58:03.805Z,9.63
2018-11-22T22:00:36.147Z,9.97
2018-11-22T22:03:06.984Z,9.13
2018-11-22T22:05:36.355Z,9.50
2018-11-22T22:08:05.864Z,10.63
2018-11-22T22:10:35.052Z,9.73
2018-11-22T22:13:05.598Z,9.30
2018-11-22T22:15:35.729Z,10.40
2018-11-22T22:18:05.415Z,9.00
2018-11-22T22:20:35.704Z,10.27
2018-11-22T22:23:05.167Z,10.53
2018-11-22T22:25:35.121Z,10.73
2018-11-22T22:28:04.353Z,9.80
2018-11-22T22:30:34.597Z,10.20
2018-11-22T22:33:05.293Z,9.37
2018-11-22T22:35:34.619Z,8.17
2018-11-22T22:38:04.415Z,8.17
2018-11-22T22:40:34.372Z,7.93
2018-11-22T22:43:03.851Z,7.93
2018-11-22T22:45:33.931Z,7.07
2018-11-22T22:48:03.747Z,7.03
2018-11-22T22:50:33.233Z,8.10
2018-11-22T22:53:02.624Z,8.30
2018-11-22T22:55:32.175Z,8.60
2018-11-22T22:58:01.734Z,8.50
2018-11-22T23:00:35.897Z,8.50
2018-11-22T23:03:06.815Z,9.13
2018-11-22T23:05:37.052Z,9.80
2018-11-22T23:08:07.049Z,9.70
2018-11-22T23:10:36.532Z,10.90
2018-11-22T23:13:06.515Z,10.10
2018-11-22T23:15:36.846Z,10.80
2018-11-22T23:18:06.230Z,10.43
2018-11-22T23:20:36.990Z,10.73
2018-11-22T23:23:06.417Z,10.53
2018-11-22T23:25:36.053Z,10.60
2018-11-22T23:28:05.343Z,11.03
2018-11-22T23:30:36.080Z,11.57
2018-11-22T23:33:07.027Z,11.47
2018-11-22T23:35:36.230Z,11.70
2018-11-22T23:38:05.850Z,11.83
2018-11-22T23:40:35.949Z,11.03
2018-11-22T23:43:06.162Z,10.80
2018-11-22T23:45:35.124Z,12.20
2018-11-22T23:48:04.967Z,10.80
2018-11-22T23:50:35.194Z,10.80
2018-11-22T23:53:05.331Z,10.87
2018-11-22T23:55:34.818Z,11.03
2018-11-22T23:58:03.862Z,11.10
